sensor_id;sensor_type;location;lat;lon;timestamp;pressure;altitude;pressure_sealevel;temperature;humidity
9717;BME280;4897;43.570;27.832;2024-01-11T00:00:39;100232.84;;;-4.73;100.00
9717;BME280;4897;43.570;27.832;2024-01-11T00:03:06;100191.28;;;-4.97;100.00
9717;BME280;4897;43.570;27.832;2024-01-11T00:05:35;100205.16;;;-4.95;100.00
9717;BME280;4897;43.570;27.832;2024-01-11T00:08:02;100209.66;;;-5.20;100.00
9717;BME280;4897;43.570;27.832;2024-01-11T00:10:29;100197.38;;;-5.01;100.00
9717;BME280;4897;43.570;27.832;2024-01-11T00:12:56;100196.50;;;-4.97;100.00
9717;BME280;4897;43.570;27.832;2024-01-11T00:15:22;100248.50;;;-4.71;100.00
9717;BME280;4897;43.570;27.832;2024-01-11T00:17:49;100165.25;;;-5.06;100.00
9717;BME280;4897;43.570;27.832;2024-01-11T00:20:16;100194.66;;;-4.83;100.00
9717;BME280;4897;43.570;27.832;2024-01-11T00:22:45;100230.09;;;-4.52;100.00
9717;BME280;4897;43.570;27.832;2024-01-11T00:25:12;100237.09;;;-4.58;100.00
9717;BME280;4897;43.570;27.832;2024-01-11T00:27:39;100106.38;;;-5.43;100.00
9717;BME280;4897;43.570;27.832;2024-01-11T00:30:07;100158.31;;;-5.07;100.00
9717;BME280;4897;43.570;27.832;2024-01-11T00:32:34;100204.19;;;-4.76;100.00
9717;BME280;4897;43.570;27.832;2024-01-11T00:35:01;100098.56;;;-5.46;100.00
9717;BME280;4897;43.570;27.832;2024-01-11T00:37:28;100177.34;;;-4.96;100.00
9717;BME280;4897;43.570;27.832;2024-01-11T00:39:56;100183.47;;;-5.02;100.00
9717;BME280;4897;43.570;27.832;2024-01-11T00:42:23;100236.31;;;-4.69;100.00
9717;BME280;4897;43.570;27.832;2024-01-11T00:44:50;100221.53;;;-4.75;100.00
9717;BME280;4897;43.570;27.832;2024-01-11T00:47:17;100236.38;;;-4.80;100.00
9717;BME280;4897;43.570;27.832;2024-01-11T00:49:43;100168.66;;;-4.95;100.00
9717;BME280;4897;43.570;27.832;2024-01-11T00:52:10;100151.31;;;-4.99;100.00
9717;BME280;4897;43.570;27.832;2024-01-11T00:54:39;100220.63;;;-4.63;100.00
9717;BME280;4897;43.570;27.832;2024-01-11T00:57:07;100191.19;;;-4.82;100.00
9717;BME280;4897;43.570;27.832;2024-01-11T00:59:34;100165.25;;;-5.03;100.00
9717;BME280;4897;43.570;27.832;2024-01-11T01:02:01;100203.28;;;-4.75;100.00
9717;BME280;4897;43.570;27.832;2024-01-11T01:04:28;100215.44;;;-4.69;100.00
9717;BME280;4897;43.570;27.832;2024-01-11T01:06:55;100212.84;;;-4.75;100.00
9717;BME280;4897;43.570;27.832;2024-01-11T01:09:21;100200.78;;;-4.92;100.00
9717;BME280;4897;43.570;27.832;2024-01-11T01:11:50;100205.97;;;-4.86;100.00
9717;BME280;4897;43.570;27.832;2024-01-11T01:14:18;100211.19;;;-4.86;100.00
9717;BME280;4897;43.570;27.832;2024-01-11T01:16:45;100159.16;;;-5.07;100.00
9717;BME280;4897;43.570;27.832;2024-01-11T01:19:12;100126.22;;;-5.18;100.00
9717;BME280;4897;43.570;27.832;2024-01-11T01:21:39;100213.75;;;-4.78;100.00
9717;BME280;4897;43.570;27.832;2024-01-11T01:24:06;100198.97;;;-4.80;100.00
9717;BME280;4897;43.570;27.832;2024-01-11T01:26:33;100205.06;;;-4.80;100.00
9717;BME280;4897;43.570;27.832;2024-01-11T01:29:01;100201.63;;;-4.82;100.00
9717;BME280;4897;43.570;27.832;2024-01-11T01:31:29;100149.63;;;-5.12;100.00
9717;BME280;4897;43.570;27.832;2024-01-11T01:34:02;100119.31;;;-5.24;100.00
9717;BME280;4897;43.570;27.832;2024-01-11T01:36:30;100116.66;;;-5.16;100.00
9717;BME280;4897;43.570;27.832;2024-01-11T01:38:57;100183.28;;;-4.77;100.00
9717;BME280;4897;43.570;27.832;2024-01-11T01:41:24;100158.16;;;-4.86;100.00
9717;BME280;4897;43.570;27.832;2024-01-11T01:43:51;100165.97;;;-4.84;100.00
9717;BME280;4897;43.570;27.832;2024-01-11T01:46:21;100176.31;;;-4.69;100.00
9717;BME280;4897;43.570;27.832;2024-01-11T01:48:51;100193.69;;;-4.68;100.00
9717;BME280;4897;43.570;27.832;2024-01-11T01:51:20;100099.38;;;-5.35;100.00
9717;BME280;4897;43.570;27.832;2024-01-11T01:53:48;100137.38;;;-5.00;100.00
9717;BME280;4897;43.570;27.832;2024-01-11T01:56:17;100113.03;;;-5.00;100.00
9717;BME280;4897;43.570;27.832;2024-01-11T01:58:45;100124.41;;;-5.09;100.00
9717;BME280;4897;43.570;27.832;2024-01-11T02:01:13;100122.56;;;-4.93;100.00
9717;BME280;4897;43.570;27.832;2024-01-11T02:03:41;100154.66;;;-4.85;100.00
9717;BME280;4897;43.570;27.832;2024-01-11T02:06:09;100100.91;;;-5.04;100.00
9717;BME280;4897;43.570;27.832;2024-01-11T02:08:36;100123.50;;;-5.03;100.00
9717;BME280;4897;43.570;27.832;2024-01-11T02:11:07;100144.19;;;-4.76;100.00
9717;BME280;4897;43.570;27.832;2024-01-11T02:13:34;100126.03;;;-4.91;100.00
9717;BME280;4897;43.570;27.832;2024-01-11T02:16:00;100087.06;;;-5.12;100.00
9717;BME280;4897;43.570;27.832;2024-01-11T02:18:27;100091.34;;;-5.04;100.00
9717;BME280;4897;43.570;27.832;2024-01-11T02:20:55;100107.91;;;-5.09;100.00
9717;BME280;4897;43.570;27.832;2024-01-11T02:23:24;100118.19;;;-4.91;100.00
9717;BME280;4897;43.570;27.832;2024-01-11T02:25:54;100113.00;;;-4.94;100.00
9717;BME280;4897;43.570;27.832;2024-01-11T02:28:21;100148.63;;;-4.89;100.00
9717;BME280;4897;43.570;27.832;2024-01-11T02:30:48;100123.44;;;-4.93;100.00
9717;BME280;4897;43.570;27.832;2024-01-11T02:33:15;100091.44;;;-5.14;100.00
9717;BME280;4897;43.570;27.832;2024-01-11T02:35:44;100115.66;;;-4.97;100.00
9717;BME280;4897;43.570;27.832;2024-01-11T02:38:11;100136.47;;;-4.93;100.00
9717;BME280;4897;43.570;27.832;2024-01-11T02:40:38;100130.44;;;-4.99;100.00
9717;BME280;4897;43.570;27.832;2024-01-11T02:43:11;100102.63;;;-5.00;100.00
9717;BME280;4897;43.570;27.832;2024-01-11T02:45:38;99976.31;;;-5.68;100.00
9717;BME280;4897;43.570;27.832;2024-01-11T02:48:08;99769.00;;;-7.00;100.00
9717;BME280;4897;43.570;27.832;2024-01-11T02:50:35;100105.28;;;-5.06;100.00
9717;BME280;4897;43.570;27.832;2024-01-11T02:53:03;100061.06;;;-5.23;100.00
9717;BME280;4897;43.570;27.832;2024-01-11T02:55:29;100010.94;;;-5.53;100.00
9717;BME280;4897;43.570;27.832;2024-01-11T02:57:56;100096.53;;;-4.99;100.00
9717;BME280;4897;43.570;27.832;2024-01-11T03:00:27;100098.28;;;-5.00;100.00
9717;BME280;4897;43.570;27.832;2024-01-11T03:02:54;100037.78;;;-5.45;100.00
9717;BME280;4897;43.570;27.832;2024-01-11T03:05:21;100031.66;;;-5.38;100.00
9717;BME280;4897;43.570;27.832;2024-01-11T03:07:48;100056.81;;;-5.36;100.00
9717;BME280;4897;43.570;27.832;2024-01-11T03:10:15;100028.22;;;-5.40;100.00
9717;BME280;4897;43.570;27.832;2024-01-11T03:12:43;100086.13;;;-5.04;100.00
9717;BME280;4897;43.570;27.832;2024-01-11T03:15:10;100052.28;;;-5.08;100.00
9717;BME280;4897;43.570;27.832;2024-01-11T03:17:38;100078.19;;;-4.89;100.00
9717;BME280;4897;43.570;27.832;2024-01-11T03:20:06;100102.53;;;-4.90;100.00
9717;BME280;4897;43.570;27.832;2024-01-11T03:22:33;100077.31;;;-4.89;100.00
9717;BME280;4897;43.570;27.832;2024-01-11T03:25:00;100071.22;;;-4.85;100.00
9717;BME280;4897;43.570;27.832;2024-01-11T03:27:27;100064.28;;;-4.86;100.00
9717;BME280;4897;43.570;27.832;2024-01-11T03:29:54;100053.84;;;-4.86;100.00
9717;BME280;4897;43.570;27.832;2024-01-11T03:32:21;99990.78;;;-5.30;100.00
9717;BME280;4897;43.570;27.832;2024-01-11T03:34:50;100068.41;;;-4.67;100.00
9717;BME280;4897;43.570;27.832;2024-01-11T03:37:17;100064.09;;;-4.71;100.00
9717;BME280;4897;43.570;27.832;2024-01-11T03:39:44;99988.09;;;-5.20;100.00
9717;BME280;4897;43.570;27.832;2024-01-11T03:42:10;99995.75;;;-5.06;100.00
9717;BME280;4897;43.570;27.832;2024-01-11T03:44:37;99951.63;;;-5.24;100.00
9717;BME280;4897;43.570;27.832;2024-01-11T03:47:04;100049.19;;;-4.55;100.00
9717;BME280;4897;43.570;27.832;2024-01-11T03:49:32;100046.63;;;-4.63;100.00
9717;BME280;4897;43.570;27.832;2024-01-11T03:52:00;99990.59;;;-5.09;100.00
9717;BME280;4897;43.570;27.832;2024-01-11T03:54:27;100015.66;;;-4.96;100.00
9717;BME280;4897;43.570;27.832;2024-01-11T03:56:54;100032.06;;;-4.82;100.00
9717;BME280;4897;43.570;27.832;2024-01-11T03:59:20;99949.06;;;-5.32;100.00
9717;BME280;4897;43.570;27.832;2024-01-11T04:01:47;100039.78;;;-4.73;100.00
9717;BME280;4897;43.570;27.832;2024-01-11T04:04:20;100050.25;;;-4.76;100.00
9717;BME280;4897;43.570;27.832;2024-01-11T04:06:48;100045.94;;;-4.81;100.00
9717;BME280;4897;43.570;27.832;2024-01-11T04:09:16;99998.38;;;-5.06;100.00
9717;BME280;4897;43.570;27.832;2024-01-11T04:11:43;100048.53;;;-4.77;100.00
9717;BME280;4897;43.570;27.832;2024-01-11T04:14:10;100049.38;;;-4.76;100.00
9717;BME280;4897;43.570;27.832;2024-01-11T04:16:40;99953.25;;;-5.14;100.00
9717;BME280;4897;43.570;27.832;2024-01-11T04:19:07;100049.25;;;-4.63;100.00
9717;BME280;4897;43.570;27.832;2024-01-11T04:21:34;100062.34;;;-4.69;100.00
9717;BME280;4897;43.570;27.832;2024-01-11T04:24:04;99984.63;;;-5.23;100.00
9717;BME280;4897;43.570;27.832;2024-01-11T04:26:33;100039.72;;;-4.67;100.00
9717;BME280;4897;43.570;27.832;2024-01-11T04:29:00;100043.22;;;-4.68;100.00
9717;BME280;4897;43.570;27.832;2024-01-11T04:31:27;99887.66;;;-5.58;100.00
9717;BME280;4897;43.570;27.832;2024-01-11T04:33:54;100031.16;;;-4.81;100.00
9717;BME280;4897;43.570;27.832;2024-01-11T04:36:21;99992.19;;;-4.96;100.00
9717;BME280;4897;43.570;27.832;2024-01-11T04:38:48;100017.31;;;-4.86;100.00
9717;BME280;4897;43.570;27.832;2024-01-11T04:41:15;100007.91;;;-5.04;100.00
9717;BME280;4897;43.570;27.832;2024-01-11T04:43:44;100012.97;;;-4.84;100.00
9717;BME280;4897;43.570;27.832;2024-01-11T04:46:15;100025.88;;;-4.75;100.00
9717;BME280;4897;43.570;27.832;2024-01-11T04:48:42;100001.69;;;-4.86;100.00
9717;BME280;4897;43.570;27.832;2024-01-11T04:51:09;99799.38;;;-5.86;100.00
9717;BME280;4897;43.570;27.832;2024-01-11T04:53:37;99985.03;;;-4.74;100.00
9717;BME280;4897;43.570;27.832;2024-01-11T04:56:06;99953.13;;;-5.02;100.00
9717;BME280;4897;43.570;27.832;2024-01-11T04:58:33;99951.38;;;-4.97;100.00
9717;BME280;4897;43.570;27.832;2024-01-11T05:01:01;100017.03;;;-4.59;100.00
9717;BME280;4897;43.570;27.832;2024-01-11T05:03:28;100014.56;;;-4.69;100.00
9717;BME280;4897;43.570;27.832;2024-01-11T05:05:55;100010.94;;;-4.58;100.00
9717;BME280;4897;43.570;27.832;2024-01-11T05:08:22;99967.78;;;-4.89;100.00
9717;BME280;4897;43.570;27.832;2024-01-11T05:10:49;100022.31;;;-4.65;100.00
9717;BME280;4897;43.570;27.832;2024-01-11T05:13:17;100004.97;;;-4.69;100.00
9717;BME280;4897;43.570;27.832;2024-01-11T05:15:45;99999.66;;;-4.60;100.00
9717;BME280;4897;43.570;27.832;2024-01-11T05:18:13;99953.97;;;-4.97;100.00
9717;BME280;4897;43.570;27.832;2024-01-11T05:20:40;100013.47;;;-4.49;100.00
9717;BME280;4897;43.570;27.832;2024-01-11T05:23:07;99984.00;;;-4.60;100.00
9717;BME280;4897;43.570;27.832;2024-01-11T05:25:37;100000.34;;;-4.46;100.00
9717;BME280;4897;43.570;27.832;2024-01-11T05:28:04;100005.63;;;-4.49;100.00
9717;BME280;4897;43.570;27.832;2024-01-11T05:30:31;99980.38;;;-4.47;100.00
9717;BME280;4897;43.570;27.832;2024-01-11T05:32:58;99919.84;;;-4.76;100.00
9717;BME280;4897;43.570;27.832;2024-01-11T05:35:26;99971.72;;;-4.52;100.00
9717;BME280;4897;43.570;27.832;2024-01-11T05:37:53;99989.81;;;-4.37;100.00
9717;BME280;4897;43.570;27.832;2024-01-11T05:40:21;99991.53;;;-4.36;100.00
9717;BME280;4897;43.570;27.832;2024-01-11T05:42:48;99994.91;;;-4.26;100.00
9717;BME280;4897;43.570;27.832;2024-01-11T05:45:15;100004.34;;;-4.16;100.00
9717;BME280;4897;43.570;27.832;2024-01-11T05:47:43;99945.50;;;-4.41;100.00
9717;BME280;4897;43.570;27.832;2024-01-11T05:50:10;99988.66;;;-4.15;100.00
9717;BME280;4897;43.570;27.832;2024-01-11T05:52:39;99968.63;;;-4.13;100.00
9717;BME280;4897;43.570;27.832;2024-01-11T05:55:06;99985.91;;;-4.04;100.00
9717;BME280;4897;43.570;27.832;2024-01-11T05:57:33;99839.97;;;-4.86;100.00
9717;BME280;4897;43.570;27.832;2024-01-11T06:00:00;99922.53;;;-4.17;100.00
9717;BME280;4897;43.570;27.832;2024-01-11T06:02:27;99973.50;;;-3.87;100.00
9717;BME280;4897;43.570;27.832;2024-01-11T06:04:54;99975.91;;;-3.72;100.00
9717;BME280;4897;43.570;27.832;2024-01-11T06:07:21;99880.53;;;-4.01;100.00
9717;BME280;4897;43.570;27.832;2024-01-11T06:09:49;99970.22;;;-3.43;100.00
9717;BME280;4897;43.570;27.832;2024-01-11T06:12:16;99935.63;;;-3.60;100.00
9717;BME280;4897;43.570;27.832;2024-01-11T06:14:46;99953.03;;;-3.58;100.00
9717;BME280;4897;43.570;27.832;2024-01-11T06:17:12;99965.81;;;-3.41;100.00
9717;BME280;4897;43.570;27.832;2024-01-11T06:19:39;99964.78;;;-3.31;100.00
9717;BME280;4897;43.570;27.832;2024-01-11T06:22:06;99971.78;;;-3.33;100.00
9717;BME280;4897;43.570;27.832;2024-01-11T06:24:33;99964.59;;;-3.20;100.00
9717;BME280;4897;43.570;27.832;2024-01-11T06:27:01;99939.53;;;-3.32;100.00
9717;BME280;4897;43.570;27.832;2024-01-11T06:29:28;99962.91;;;-3.23;100.00
9717;BME280;4897;43.570;27.832;2024-01-11T06:31:58;99936.06;;;-3.33;100.00
9717;BME280;4897;43.570;27.832;2024-01-11T06:34:25;99967.00;;;-3.08;100.00
9717;BME280;4897;43.570;27.832;2024-01-11T06:36:53;99937.63;;;-3.22;100.00
9717;BME280;4897;43.570;27.832;2024-01-11T06:39:21;99973.34;;;-3.21;100.00
9717;BME280;4897;43.570;27.832;2024-01-11T06:41:48;99961.84;;;-3.11;100.00
9717;BME280;4897;43.570;27.832;2024-01-11T06:44:16;99946.22;;;-3.16;100.00
9717;BME280;4897;43.570;27.832;2024-01-11T06:46:44;99955.75;;;-3.12;100.00
9717;BME280;4897;43.570;27.832;2024-01-11T06:49:11;99955.72;;;-3.09;100.00
9717;BME280;4897;43.570;27.832;2024-01-11T06:51:41;99876.78;;;-3.34;100.00
9717;BME280;4897;43.570;27.832;2024-01-11T06:54:08;99949.53;;;-3.06;100.00
9717;BME280;4897;43.570;27.832;2024-01-11T06:56:35;99929.22;;;-2.91;100.00
9717;BME280;4897;43.570;27.832;2024-01-11T06:59:02;99933.16;;;-2.70;100.00
9717;BME280;4897;43.570;27.832;2024-01-11T07:01:30;99928.69;;;-2.64;100.00
9717;BME280;4897;43.570;27.832;2024-01-11T07:03:57;99920.66;;;-2.55;100.00
9717;BME280;4897;43.570;27.832;2024-01-11T07:06:24;99947.53;;;-2.47;100.00
9717;BME280;4897;43.570;27.832;2024-01-11T07:08:54;99928.25;;;-2.44;100.00
9717;BME280;4897;43.570;27.832;2024-01-11T07:11:21;99868.75;;;-2.77;100.00
9717;BME280;4897;43.570;27.832;2024-01-11T07:13:47;99840.06;;;-2.82;100.00
9717;BME280;4897;43.570;27.832;2024-01-11T07:16:14;99898.50;;;-2.38;100.00
9717;BME280;4897;43.570;27.832;2024-01-11T07:18:43;99926.22;;;-2.28;100.00
9717;BME280;4897;43.570;27.832;2024-01-11T07:21:10;99936.09;;;-2.01;100.00
9717;BME280;4897;43.570;27.832;2024-01-11T07:23:36;99849.38;;;-2.27;100.00
9717;BME280;4897;43.570;27.832;2024-01-11T07:26:04;99925.03;;;-1.77;100.00
9717;BME280;4897;43.570;27.832;2024-01-11T07:28:30;99909.41;;;-1.80;100.00
9717;BME280;4897;43.570;27.832;2024-01-11T07:30:59;99912.50;;;-1.65;100.00
9717;BME280;4897;43.570;27.832;2024-01-11T07:33:28;99933.09;;;-1.48;100.00
9717;BME280;4897;43.570;27.832;2024-01-11T07:35:57;99919.16;;;-1.50;100.00
9717;BME280;4897;43.570;27.832;2024-01-11T07:38:24;99888.28;;;-1.74;100.00
9717;BME280;4897;43.570;27.832;2024-01-11T07:40:52;99929.06;;;-1.26;100.00
9717;BME280;4897;43.570;27.832;2024-01-11T07:43:19;99845.56;;;-1.78;100.00
9717;BME280;4897;43.570;27.832;2024-01-11T07:45:46;99891.72;;;-1.37;100.00
9717;BME280;4897;43.570;27.832;2024-01-11T07:48:13;99921.06;;;-1.21;100.00
9717;BME280;4897;43.570;27.832;2024-01-11T07:50:40;99919.00;;;-1.09;100.00
9717;BME280;4897;43.570;27.832;2024-01-11T07:53:08;99912.50;;;-0.96;100.00
9717;BME280;4897;43.570;27.832;2024-01-11T07:55:35;99903.22;;;-1.07;100.00
9717;BME280;4897;43.570;27.832;2024-01-11T07:58:03;99906.03;;;-0.83;100.00
9717;BME280;4897;43.570;27.832;2024-01-11T08:00:30;99862.25;;;-1.13;100.00
9717;BME280;4897;43.570;27.832;2024-01-11T08:02:57;99908.59;;;-0.79;100.00
9717;BME280;4897;43.570;27.832;2024-01-11T08:05:24;99877.84;;;-1.07;100.00
9717;BME280;4897;43.570;27.832;2024-01-11T08:07:51;99898.25;;;-0.86;100.00
9717;BME280;4897;43.570;27.832;2024-01-11T08:10:19;99926.00;;;-0.77;100.00
9717;BME280;4897;43.570;27.832;2024-01-11T08:12:46;99873.88;;;-0.91;100.00
9717;BME280;4897;43.570;27.832;2024-01-11T08:15:14;99895.47;;;-0.79;100.00
9717;BME280;4897;43.570;27.832;2024-01-11T08:17:44;99830.75;;;-1.13;100.00
9717;BME280;4897;43.570;27.832;2024-01-11T08:20:11;99898.69;;;-0.70;100.00
9717;BME280;4897;43.570;27.832;2024-01-11T08:22:39;99868.47;;;-0.85;100.00
9717;BME280;4897;43.570;27.832;2024-01-11T08:25:06;99885.47;;;-0.67;100.00
9717;BME280;4897;43.570;27.832;2024-01-11T08:27:35;99871.19;;;-0.58;100.00
9717;BME280;4897;43.570;27.832;2024-01-11T08:30:02;99839.66;;;-0.57;100.00
9717;BME280;4897;43.570;27.832;2024-01-11T08:32:32;99837.63;;;-0.47;100.00
9717;BME280;4897;43.570;27.832;2024-01-11T08:35:05;99697.19;;;-1.22;100.00
9717;BME280;4897;43.570;27.832;2024-01-11T08:37:34;99816.41;;;-0.41;100.00
9717;BME280;4897;43.570;27.832;2024-01-11T08:40:01;99853.97;;;-0.09;100.00
9717;BME280;4897;43.570;27.832;2024-01-11T08:42:30;99857.44;;;-0.08;100.00
9717;BME280;4897;43.570;27.832;2024-01-11T08:44:58;99843.00;;;0.05;100.00
9717;BME280;4897;43.570;27.832;2024-01-11T08:47:29;99841.09;;;0.10;100.00
9717;BME280;4897;43.570;27.832;2024-01-11T08:49:59;99849.59;;;0.18;100.00
9717;BME280;4897;43.570;27.832;2024-01-11T08:52:31;99834.38;;;0.28;100.00
9717;BME280;4897;43.570;27.832;2024-01-11T08:54:58;99822.81;;;0.33;100.00
9717;BME280;4897;43.570;27.832;2024-01-11T08:57:25;99823.06;;;0.52;100.00
9717;BME280;4897;43.570;27.832;2024-01-11T08:59:52;99817.66;;;0.55;100.00
9717;BME280;4897;43.570;27.832;2024-01-11T09:02:21;99815.84;;;0.57;100.00
9717;BME280;4897;43.570;27.832;2024-01-11T09:04:48;99805.53;;;1.23;100.00
9717;BME280;4897;43.570;27.832;2024-01-11T09:07:15;99783.81;;;3.47;100.00
9717;BME280;4897;43.570;27.832;2024-01-11T09:09:42;99782.94;;;5.05;100.00
9717;BME280;4897;43.570;27.832;2024-01-11T09:12:09;99718.00;;;5.14;89.02
9717;BME280;4897;43.570;27.832;2024-01-11T09:14:36;99772.44;;;6.45;77.49
9717;BME280;4897;43.570;27.832;2024-01-11T09:17:04;99722.41;;;7.66;68.90
9717;BME280;4897;43.570;27.832;2024-01-11T09:19:33;99753.09;;;8.13;73.78
9717;BME280;4897;43.570;27.832;2024-01-11T09:22:00;99751.06;;;8.30;70.36
9717;BME280;4897;43.570;27.832;2024-01-11T09:24:27;99717.31;;;7.90;65.28
9717;BME280;4897;43.570;27.832;2024-01-11T09:26:54;99738.66;;;7.76;63.74
9717;BME280;4897;43.570;27.832;2024-01-11T09:29:21;99729.91;;;7.74;58.94
9717;BME280;4897;43.570;27.832;2024-01-11T09:31:48;99718.56;;;8.11;58.07
9717;BME280;4897;43.570;27.832;2024-01-11T09:34:15;99724.72;;;8.77;55.18
9717;BME280;4897;43.570;27.832;2024-01-11T09:36:45;99716.03;;;8.22;53.74
9717;BME280;4897;43.570;27.832;2024-01-11T09:39:12;99714.72;;;9.06;51.74
9717;BME280;4897;43.570;27.832;2024-01-11T09:41:42;99714.28;;;9.00;49.80
9717;BME280;4897;43.570;27.832;2024-01-11T09:44:10;99662.63;;;8.50;48.05
9717;BME280;4897;43.570;27.832;2024-01-11T09:46:37;99667.13;;;8.62;47.89
9717;BME280;4897;43.570;27.832;2024-01-11T09:49:04;99678.84;;;9.23;46.81
9717;BME280;4897;43.570;27.832;2024-01-11T09:51:34;99670.25;;;9.43;45.49
9717;BME280;4897;43.570;27.832;2024-01-11T09:54:06;99665.94;;;8.66;44.70
9717;BME280;4897;43.570;27.832;2024-01-11T09:56:33;99651.03;;;8.76;44.92
9717;BME280;4897;43.570;27.832;2024-01-11T09:59:01;99660.06;;;8.99;44.55
9717;BME280;4897;43.570;27.832;2024-01-11T10:01:31;99659.41;;;8.45;46.33
9717;BME280;4897;43.570;27.832;2024-01-11T10:03:59;99658.38;;;8.73;46.71
9717;BME280;4897;43.570;27.832;2024-01-11T10:06:27;99643.13;;;8.88;47.45
9717;BME280;4897;43.570;27.832;2024-01-11T10:08:54;99636.72;;;9.39;45.82
9717;BME280;4897;43.570;27.832;2024-01-11T10:11:22;99612.50;;;9.42;44.63
9717;BME280;4897;43.570;27.832;2024-01-11T10:13:57;99623.03;;;9.80;44.30
9717;BME280;4897;43.570;27.832;2024-01-11T10:16:27;99622.97;;;10.16;44.38
9717;BME280;4897;43.570;27.832;2024-01-11T10:18:54;99586.06;;;9.97;43.97
9717;BME280;4897;43.570;27.832;2024-01-11T10:21:22;99612.44;;;10.25;42.45
9717;BME280;4897;43.570;27.832;2024-01-11T10:23:49;99606.63;;;10.31;43.49
9717;BME280;4897;43.570;27.832;2024-01-11T10:26:16;99558.47;;;8.41;43.18
9717;BME280;4897;43.570;27.832;2024-01-11T10:28:46;99605.31;;;8.18;46.54
9717;BME280;4897;43.570;27.832;2024-01-11T10:31:13;99608.25;;;9.03;50.08
9717;BME280;4897;43.570;27.832;2024-01-11T10:33:40;99589.44;;;9.88;45.63
9717;BME280;4897;43.570;27.832;2024-01-11T10:36:08;99606.75;;;8.86;44.75
9717;BME280;4897;43.570;27.832;2024-01-11T10:38:37;99589.78;;;9.36;44.95
9717;BME280;4897;43.570;27.832;2024-01-11T10:41:05;99575.09;;;9.54;43.31
9717;BME280;4897;43.570;27.832;2024-01-11T10:43:36;99549.41;;;9.99;43.19
9717;BME280;4897;43.570;27.832;2024-01-11T10:46:05;99569.59;;;10.03;41.94
9717;BME280;4897;43.570;27.832;2024-01-11T10:48:37;99545.91;;;9.99;42.28
9717;BME280;4897;43.570;27.832;2024-01-11T10:51:08;99565.31;;;9.06;42.56
9717;BME280;4897;43.570;27.832;2024-01-11T10:53:41;99559.84;;;9.20;43.46
9717;BME280;4897;43.570;27.832;2024-01-11T10:56:11;99547.88;;;9.49;43.69
9717;BME280;4897;43.570;27.832;2024-01-11T10:58:40;99552.00;;;9.77;42.35
9717;BME280;4897;43.570;27.832;2024-01-11T11:01:10;99515.53;;;10.68;40.39
9717;BME280;4897;43.570;27.832;2024-01-11T11:03:37;99526.88;;;11.14;39.89
9717;BME280;4897;43.570;27.832;2024-01-11T11:06:06;99518.66;;;10.39;40.82
9717;BME280;4897;43.570;27.832;2024-01-11T11:08:33;99533.28;;;10.47;40.74
9717;BME280;4897;43.570;27.832;2024-01-11T11:11:03;99526.69;;;10.39;41.04
9717;BME280;4897;43.570;27.832;2024-01-11T11:13:31;99501.84;;;11.04;41.48
9717;BME280;4897;43.570;27.832;2024-01-11T11:16:00;99518.56;;;9.60;42.28
9717;BME280;4897;43.570;27.832;2024-01-11T11:18:31;99513.38;;;9.70;42.16
9717;BME280;4897;43.570;27.832;2024-01-11T11:21:00;99507.63;;;10.55;41.69
9717;BME280;4897;43.570;27.832;2024-01-11T11:23:27;99454.97;;;10.56;40.78
9717;BME280;4897;43.570;27.832;2024-01-11T11:25:54;99483.66;;;10.54;39.76
9717;BME280;4897;43.570;27.832;2024-01-11T11:28:26;99488.03;;;10.77;40.56
9717;BME280;4897;43.570;27.832;2024-01-11T11:30:53;99470.81;;;11.12;41.20
9717;BME280;4897;43.570;27.832;2024-01-11T11:33:23;99458.13;;;11.57;40.50
9717;BME280;4897;43.570;27.832;2024-01-11T11:35:54;99443.66;;;11.28;39.63
9717;BME280;4897;43.570;27.832;2024-01-11T11:38:25;99449.56;;;11.00;39.58
9717;BME280;4897;43.570;27.832;2024-01-11T11:40:55;99430.41;;;10.73;40.52
9717;BME280;4897;43.570;27.832;2024-01-11T11:43:22;99439.19;;;9.62;41.39
9717;BME280;4897;43.570;27.832;2024-01-11T11:45:51;99463.69;;;8.24;44.54
9717;BME280;4897;43.570;27.832;2024-01-11T11:48:52;99463.47;;;7.12;50.29
9717;BME280;4897;43.570;27.832;2024-01-11T11:51:22;99458.41;;;6.40;57.40
9717;BME280;4897;43.570;27.832;2024-01-11T11:53:51;99462.81;;;5.99;64.31
9717;BME280;4897;43.570;27.832;2024-01-11T11:56:19;99437.16;;;5.26;69.97
9717;BME280;4897;43.570;27.832;2024-01-11T11:58:47;99447.50;;;5.31;79.60
9717;BME280;4897;43.570;27.832;2024-01-11T12:01:15;99408.91;;;5.11;78.89
9717;BME280;4897;43.570;27.832;2024-01-11T12:03:43;99441.06;;;5.79;80.09
9717;BME280;4897;43.570;27.832;2024-01-11T12:06:15;99434.28;;;5.89;80.84
9717;BME280;4897;43.570;27.832;2024-01-11T12:08:45;99427.41;;;5.71;79.82
9717;BME280;4897;43.570;27.832;2024-01-11T12:11:16;99425.13;;;5.50;81.75
9717;BME280;4897;43.570;27.832;2024-01-11T12:13:44;99427.25;;;5.74;86.11
9717;BME280;4897;43.570;27.832;2024-01-11T12:16:11;99426.69;;;5.97;76.25
9717;BME280;4897;43.570;27.832;2024-01-11T12:18:39;99416.25;;;5.80;73.85
9717;BME280;4897;43.570;27.832;2024-01-11T12:21:06;99406.78;;;6.04;76.07
9717;BME280;4897;43.570;27.832;2024-01-11T12:23:34;99397.66;;;6.22;72.43
9717;BME280;4897;43.570;27.832;2024-01-11T12:26:03;99383.69;;;6.32;70.64
9717;BME280;4897;43.570;27.832;2024-01-11T12:28:31;99380.34;;;6.02;74.33
9717;BME280;4897;43.570;27.832;2024-01-11T12:30:58;99387.41;;;5.59;79.61
9717;BME280;4897;43.570;27.832;2024-01-11T12:33:26;99388.53;;;5.41;81.81
9717;BME280;4897;43.570;27.832;2024-01-11T12:35:53;99359.03;;;5.90;73.93
9717;BME280;4897;43.570;27.832;2024-01-11T12:38:21;99374.63;;;6.63;71.32
9717;BME280;4897;43.570;27.832;2024-01-11T12:40:48;99382.38;;;7.32;63.04
9717;BME280;4897;43.570;27.832;2024-01-11T12:43:16;99369.19;;;8.42;56.17
9717;BME280;4897;43.570;27.832;2024-01-11T12:45:43;99362.19;;;8.16;55.12
9717;BME280;4897;43.570;27.832;2024-01-11T12:48:10;99364.69;;;7.56;57.70
9717;BME280;4897;43.570;27.832;2024-01-11T12:50:40;99372.44;;;6.29;62.95
9717;BME280;4897;43.570;27.832;2024-01-11T12:53:08;99371.91;;;5.24;65.72
9717;BME280;4897;43.570;27.832;2024-01-11T12:55:35;99358.56;;;4.81;73.01
9717;BME280;4897;43.570;27.832;2024-01-11T12:58:08;99360.22;;;4.53;80.55
9717;BME280;4897;43.570;27.832;2024-01-11T13:00:37;99360.78;;;4.28;90.36
9717;BME280;4897;43.570;27.832;2024-01-11T13:03:04;99367.59;;;4.01;92.15
9717;BME280;4897;43.570;27.832;2024-01-11T13:05:31;99359.66;;;3.85;99.39